Time;durP1;ratioP1;P1;durP2;ratioP2;P2;SDS_P1;SDS_P2;PMS_P1;PMS_P2;Temp;Humidity;BMP_temperature;BMP_pressure;BME280_temperature;BME280_humidity;BME280_pressure;Samples;Min_cycle;Max_cycle;Signal;HPM_P1;HPM_P2
2023/02/05 00:03:48;;;;;;;29.23;10.57;;;;;;;1.57;100.00;102434.06;20770557;28;20081;-74
2023/02/05 00:13:49;;;;;;;31.50;11.00;;;;;;;1.42;100.00;102431.56;20771647;28;20057;-73
2023/02/05 00:23:50;;;;;;;29.73;11.73;;;;;;;1.33;100.00;102422.41;20770722;28;20493;-73
2023/02/05 00:33:52;;;;;;;24.38;10.77;;;;;;;1.31;100.00;102424.94;20770247;28;20099;-73
2023/02/05 00:43:53;;;;;;;22.63;11.32;;;;;;;1.18;100.00;102419.91;20769658;28;20079;-73
2023/02/05 00:53:54;;;;;;;23.83;11.38;;;;;;;1.24;100.00;102423.69;20772988;28;20498;-73
2023/02/05 01:03:55;;;;;;;24.75;11.38;;;;;;;1.28;100.00;102428.22;20773446;28;20055;-73
2023/02/05 01:13:57;;;;;;;23.30;11.38;;;;;;;1.30;100.00;102418.00;20767939;28;20506;-73
2023/02/05 01:24:00;;;;;;;31.15;12.02;;;;;;;1.33;100.00;102407.81;20767712;28;20058;-73
2023/02/05 01:34:01;;;;;;;26.83;12.10;;;;;;;1.55;100.00;102389.22;20767819;28;20096;-73
2023/02/05 01:44:02;;;;;;;47.22;18.13;;;;;;;1.57;100.00;102366.06;20766146;28;20061;-73
2023/02/05 01:54:04;;;;;;;28.20;12.60;;;;;;;1.69;100.00;102357.25;20810967;23;20049;-77
2023/02/05 02:04:05;;;;;;;33.22;13.52;;;;;;;1.77;100.00;102355.06;20845592;28;20048;-76
2023/02/05 02:14:06;;;;;;;22.15;10.18;;;;;;;1.61;100.00;102352.50;20886953;28;20076;-74
2023/02/05 02:24:07;;;;;;;22.05;9.63;;;;;;;1.57;100.00;102337.66;20887969;28;20053;-74
2023/02/05 02:34:09;;;;;;;26.73;10.48;;;;;;;1.68;100.00;102314.19;20899992;28;20049;-75
2023/02/05 02:44:10;;;;;;;23.75;10.10;;;;;;;1.80;100.00;102308.75;20883623;28;20091;-75
2023/02/05 02:54:11;;;;;;;21.08;11.05;;;;;;;1.86;100.00;102323.66;20899777;28;20390;-76
2023/02/05 03:04:12;;;;;;;25.90;10.40;;;;;;;1.86;100.00;102321.06;20899708;28;20118;-75
2023/02/05 03:14:14;;;;;;;25.70;10.32;;;;;;;1.78;100.00;102312.94;20892669;28;20045;-75
2023/02/05 03:24:15;;;;;;;22.20;10.60;;;;;;;2.00;100.00;102308.03;20898888;28;20051;-75
2023/02/05 03:34:16;;;;;;;25.30;10.15;;;;;;;2.17;100.00;102279.56;20897616;28;20469;-75
2023/02/05 03:44:17;;;;;;;25.67;10.88;;;;;;;2.27;100.00;102271.44;20896876;28;20348;-74
2023/02/05 03:54:19;;;;;;;24.48;10.07;;;;;;;2.24;100.00;102267.00;20893227;28;20049;-76
2023/02/05 04:04:20;;;;;;;24.20;9.98;;;;;;;2.23;100.00;102273.00;20894492;28;20091;-76
2023/02/05 04:14:21;;;;;;;23.80;9.93;;;;;;;2.31;100.00;102274.25;20895074;28;20493;-76
2023/02/05 04:24:24;;;;;;;25.33;10.07;;;;;;;2.36;100.00;102286.50;20893475;28;20119;-74
2023/02/05 04:34:25;;;;;;;27.23;9.65;;;;;;;2.44;100.00;102295.50;20891957;28;20049;-76
2023/02/05 04:44:26;;;;;;;22.08;9.98;;;;;;;2.40;100.00;102309.13;20892024;28;20091;-76
2023/02/05 04:54:27;;;;;;;21.83;9.23;;;;;;;2.35;100.00;102310.56;20889829;28;20507;-76
2023/02/05 05:04:29;;;;;;;25.40;10.43;;;;;;;2.27;100.00;102303.34;20890167;28;20045;-76
2023/02/05 05:14:30;;;;;;;22.48;9.30;;;;;;;2.49;100.00;102281.09;20889984;28;20072;-77
2023/02/05 05:24:31;;;;;;;22.38;9.38;;;;;;;2.48;100.00;102272.44;20889683;28;20052;-75
2023/02/05 05:34:32;;;;;;;28.50;10.52;;;;;;;2.57;100.00;102279.75;20888510;28;20049;-76
2023/02/05 05:44:33;;;;;;;27.83;10.63;;;;;;;2.65;100.00;102262.03;20888743;28;20053;-76
2023/02/05 05:54:35;;;;;;;29.35;11.02;;;;;;;2.73;100.00;102268.41;20887154;28;20472;-75
2023/02/05 06:04:36;;;;;;;28.65;11.75;;;;;;;2.82;100.00;102271.44;20895451;28;20124;-75
2023/02/05 06:14:37;;;;;;;30.70;13.27;;;;;;;2.88;100.00;102279.50;20901086;28;20056;-75
2023/02/05 06:24:39;;;;;;;27.27;12.65;;;;;;;2.87;100.00;102277.69;20900939;28;20063;-75
2023/02/05 06:34:40;;;;;;;34.08;14.27;;;;;;;2.96;100.00;102274.66;20901118;28;20049;-74
2023/02/05 06:44:41;;;;;;;31.35;13.23;;;;;;;2.91;100.00;102289.06;20901102;28;20452;-73
2023/02/05 06:54:43;;;;;;;27.20;13.93;;;;;;;2.97;100.00;102281.59;20880739;28;20090;-73
2023/02/05 07:04:44;;;;;;;36.00;13.50;;;;;;;3.08;100.00;102262.28;20898667;28;20080;-73
2023/02/05 07:14:46;;;;;;;28.55;12.38;;;;;;;3.20;100.00;102249.84;20879344;28;20111;-77
2023/02/05 07:24:47;;;;;;;31.48;13.23;;;;;;;3.38;100.00;102254.09;20897920;28;20076;-77
2023/02/05 07:34:48;;;;;;;31.77;13.98;;;;;;;3.43;100.00;102263.81;20877926;28;20093;-77
2023/02/05 07:44:49;;;;;;;30.60;12.35;;;;;;;3.46;100.00;102276.91;20898873;28;20752;-78
2023/02/05 07:54:50;;;;;;;29.95;13.75;;;;;;;3.51;100.00;102269.34;20893154;28;20421;-77
2023/02/05 08:04:52;;;;;;;31.30;13.82;;;;;;;3.58;100.00;102259.28;20889147;28;20095;-78
2023/02/05 08:14:53;;;;;;;30.95;15.23;;;;;;;3.61;100.00;102235.22;20880197;28;20048;-77
2023/02/05 08:24:55;;;;;;;33.90;14.80;;;;;;;3.58;100.00;102230.78;20879516;28;20085;-78
2023/02/05 08:34:57;;;;;;;35.78;15.88;;;;;;;3.59;100.00;102244.63;20880547;28;20408;-77
2023/02/05 08:44:59;;;;;;;31.95;15.35;;;;;;;3.68;100.00;102232.06;20878820;28;20394;-77
2023/02/05 08:55:00;;;;;;;39.55;14.95;;;;;;;3.74;100.00;102221.09;20879393;28;20348;-77
2023/02/05 09:05:02;;;;;;;32.33;15.00;;;;;;;3.81;100.00;102203.25;20870568;28;20152;-74
2023/02/05 09:15:09;;;;;;;31.52;15.55;;;;;;;3.93;100.00;102187.34;20868235;28;20143;-74
2023/02/05 09:25:11;;;;;;;34.10;14.18;;;;;;;4.00;100.00;102183.28;20871968;28;20110;-74
2023/02/05 09:35:12;;;;;;;37.20;16.55;;;;;;;4.05;100.00;102184.34;20880421;28;20048;-74
2023/02/05 09:45:13;;;;;;;37.85;13.85;;;;;;;4.05;100.00;102166.19;20887255;28;20053;-73
2023/02/05 10:27:26;;;;;;;31.65;14.68;;;;;;;4.35;100.00;102151.78;20876277;28;20533;-74
2023/02/05 10:37:28;;;;;;;30.33;14.15;;;;;;;4.40;100.00;102145.91;20884214;28;20493;-75
2023/02/05 10:47:29;;;;;;;22.65;12.25;;;;;;;4.58;100.00;102137.09;20887919;28;20163;-74
2023/02/05 10:57:30;;;;;;;31.17;17.38;;;;;;;4.64;100.00;102126.06;20897115;28;20049;-74
2023/02/05 11:07:32;;;;;;;29.98;14.85;;;;;;;4.65;100.00;102099.31;20898976;28;20063;-75
2023/02/05 11:17:33;;;;;;;36.58;15.00;;;;;;;4.44;100.00;102099.41;20898206;28;20049;-74
2023/02/05 11:27:34;;;;;;;38.13;16.85;;;;;;;4.52;100.00;102092.78;20897509;28;20053;-74
2023/02/05 11:37:35;;;;;;;31.75;16.80;;;;;;;4.61;100.00;102097.44;20895865;28;20147;-74
2023/02/05 11:47:37;;;;;;;28.73;16.48;;;;;;;4.51;100.00;102088.44;20895838;28;20057;-74
2023/02/05 11:57:40;;;;;;;31.95;16.75;;;;;;;4.55;100.00;102084.22;20886445;28;20060;-74
2023/02/05 12:07:41;;;;;;;31.75;16.80;;;;;;;4.54;100.00;102079.84;20889260;28;20135;-78
2023/02/05 12:17:44;;;;;;;33.63;17.55;;;;;;;4.55;100.00;102081.63;20864240;28;20049;-75
2023/02/05 12:27:45;;;;;;;32.85;17.75;;;;;;;4.61;100.00;102050.72;20874116;28;20068;-77
2023/02/05 12:38:10;;;;;;;;;;;;;;;4.75;100.00;102030.44;20842930;28;20053;-76
2023/02/05 12:48:39;;;;;;;31.52;17.70;;;;;;;4.87;100.00;102017.88;20884893;28;19917;-76
2023/02/05 12:58:40;;;;;;;34.13;18.75;;;;;;;4.85;100.00;102015.25;20876548;28;20045;-76
2023/02/05 13:08:41;;;;;;;28.33;17.42;;;;;;;4.96;100.00;101996.53;20762674;28;20042;-76
2023/02/05 13:18:42;;;;;;;31.77;18.58;;;;;;;4.98;100.00;102000.94;20751328;28;20054;-76
2023/02/05 13:29:08;;;;;;;29.50;17.02;;;;;;;4.97;100.00;102004.38;20749706;28;20632;-74
2023/02/05 13:39:33;;;;;;;32.50;18.80;;;;;;;4.87;100.00;102008.38;20840760;28;20057;-73
2023/02/05 13:49:58;;;;;;;38.60;20.05;;;;;;;4.98;100.00;101993.16;20845789;28;20287;-74
2023/02/05 14:00:24;;;;;;;32.42;17.63;;;;;;;4.96;100.00;101988.75;20847301;28;20450;-76
2023/02/05 14:10:25;;;;;;;31.17;18.85;;;;;;;4.92;100.00;101990.34;20776881;28;20062;-77
2023/02/05 14:20:27;;;;;;;33.45;18.80;;;;;;;4.92;100.00;101979.97;20774130;28;20140;-74
2023/02/05 14:30:36;;;;;;;37.42;19.67;;;;;;;4.96;100.00;101981.84;20789875;28;20116;-75
2023/02/05 14:40:37;;;;;;;35.40;19.23;;;;;;;5.00;100.00;101985.44;20780283;28;20108;-72
2023/02/05 14:50:39;;;;;;;30.75;18.02;;;;;;;4.92;100.00;101997.25;20783780;28;20506;-72
2023/02/05 15:00:43;;;;;;;34.13;18.58;;;;;;;4.77;100.00;102005.44;20779572;28;20053;-74
2023/02/05 15:10:44;;;;;;;38.20;20.10;;;;;;;4.81;100.00;102017.69;20772091;28;20073;-73
2023/02/05 15:20:46;;;;;;;37.75;21.92;;;;;;;4.94;100.00;102012.06;20770522;28;20482;-74
2023/02/05 15:30:47;;;;;;;37.40;20.05;;;;;;;5.01;100.00;102016.63;20780333;28;20059;-74
2023/02/05 15:40:48;;;;;;;36.60;21.75;;;;;;;4.88;100.00;102036.09;20865810;28;20118;-77
2023/02/05 15:50:57;;;;;;;33.92;18.70;;;;;;;4.81;100.00;102039.31;20861040;28;20064;-77
2023/02/05 16:00:58;;;;;;;38.17;21.05;;;;;;;4.75;100.00;102046.91;20793717;28;20134;-78
2023/02/05 16:11:04;;;;;;;40.75;23.75;;;;;;;4.79;100.00;102058.25;20777097;28;20060;-77
2023/02/05 16:21:06;;;;;;;42.75;22.25;;;;;;;4.74;100.00;102068.47;20782159;28;20053;-76
2023/02/05 16:31:07;;;;;;;37.47;21.58;;;;;;;4.77;100.00;102071.19;20772769;28;20061;-76
2023/02/05 16:41:08;;;;;;;54.92;32.88;;;;;;;4.78;100.00;102098.88;20776869;28;20065;-77
2023/02/05 16:51:10;;;;;;;75.05;41.60;;;;;;;4.79;100.00;102103.28;20776831;28;20053;-78
2023/02/05 17:01:11;;;;;;;51.40;26.88;;;;;;;4.73;100.00;102128.09;20845227;28;20064;-78
2023/02/05 17:11:12;;;;;;;39.30;22.35;;;;;;;4.66;100.00;102142.56;20854862;28;20535;-78
2023/02/05 17:21:14;;;;;;;38.47;20.88;;;;;;;4.65;100.00;102161.56;20856258;28;20053;-77
2023/02/05 17:31:16;;;;;;;54.10;28.67;;;;;;;4.68;100.00;102169.44;20855252;28;20243;-76
2023/02/05 17:51:40;;;;;;;42.95;26.08;;;;;;;4.71;100.00;102182.53;20853524;28;20057;-74
2023/02/05 18:01:41;;;;;;;51.57;27.47;;;;;;;4.63;100.00;102189.16;20791371;28;20053;-74
2023/02/05 18:11:43;;;;;;;36.47;19.52;;;;;;;4.51;100.00;102193.91;19883119;28;10000822;-73
2023/02/05 18:21:46;;;;;;;34.38;17.70;;;;;;;4.53;100.00;102187.03;20778998;28;20068;-72
2023/02/05 18:31:47;;;;;;;36.20;18.73;;;;;;;4.50;100.00;102211.13;20778658;28;20049;-73
2023/02/05 18:41:48;;;;;;;36.45;18.88;;;;;;;4.38;100.00;102234.91;19918924;28;10000569;-72
2023/02/05 18:51:50;;;;;;;40.72;21.63;;;;;;;4.36;100.00;102256.44;20807834;28;20144;-73
2023/02/05 19:01:53;;;;;;;34.13;18.00;;;;;;;4.31;100.00;102251.06;19987522;28;10001771;-72
2023/02/05 19:11:55;;;;;;;40.78;20.85;;;;;;;4.35;100.00;102265.91;20879101;28;20052;-72
2023/02/05 19:22:01;;;;;;;39.10;20.35;;;;;;;4.31;100.00;102286.47;20887432;28;20044;-72
2023/02/05 19:32:04;;;;;;;33.33;18.60;;;;;;;4.34;100.00;102284.00;20883673;28;20064;-72
2023/02/05 19:42:06;;;;;;;32.83;18.67;;;;;;;4.34;100.00;102290.06;20900324;28;20180;-72
2023/02/05 19:52:08;;;;;;;39.13;20.75;;;;;;;4.28;100.00;102295.00;20882994;28;20627;-71
2023/02/05 20:02:09;;;;;;;38.53;19.35;;;;;;;4.23;100.00;102309.50;20883864;28;20076;-72
2023/02/05 20:12:11;;;;;;;31.63;18.55;;;;;;;4.12;100.00;102300.41;20884160;28;20049;-72
2023/02/05 20:22:13;;;;;;;29.63;16.60;;;;;;;4.07;100.00;102310.59;20884863;28;20048;-71
2023/02/05 20:32:14;;;;;;;35.78;18.98;;;;;;;4.09;100.00;102313.25;20883164;28;20052;-72
2023/02/05 20:42:15;;;;;;;30.25;17.13;;;;;;;4.01;100.00;102304.25;20881824;28;20053;-72
2023/02/05 20:52:17;;;;;;;37.15;20.15;;;;;;;3.96;100.00;102329.97;20882649;28;20053;-72
2023/02/05 21:02:19;;;;;;;27.02;15.02;;;;;;;3.97;100.00;102343.81;20960839;28;20062;-71
2023/02/05 21:12:26;;;;;;;25.92;14.82;;;;;;;3.91;100.00;102354.81;20967525;28;20048;-72
2023/02/05 21:22:28;;;;;;;26.60;15.18;;;;;;;3.88;100.00;102369.34;20957806;28;20063;-71
2023/02/05 21:32:29;;;;;;;26.30;14.60;;;;;;;3.88;100.00;102395.25;20964743;28;20059;-72
2023/02/05 21:42:30;;;;;;;24.98;14.98;;;;;;;3.85;100.00;102409.84;20965065;28;20045;-71
2023/02/05 21:52:32;;;;;;;21.60;12.98;;;;;;;3.96;100.00;102424.97;20965335;28;20078;-71
2023/02/05 22:02:33;;;;;;;21.55;12.60;;;;;;;3.86;100.00;102429.75;20884721;28;20079;-71
2023/02/05 22:12:34;;;;;;;32.00;15.13;;;;;;;3.85;100.00;102443.53;20881763;28;20076;-71
2023/02/05 22:22:36;;;;;;;28.48;13.35;;;;;;;3.77;100.00;102457.84;20881959;28;20056;-71
2023/02/05 22:32:37;;;;;;;22.05;11.88;;;;;;;3.60;100.00;102456.22;20880484;28;20075;-74
2023/02/05 22:42:38;;;;;;;20.98;12.23;;;;;;;3.60;100.00;102483.00;20882737;28;20092;-75
2023/02/05 22:52:39;;;;;;;25.95;14.45;;;;;;;3.50;100.00;102486.00;20897367;28;20068;-74
2023/02/05 23:02:41;;;;;;;26.33;14.18;;;;;;;3.54;100.00;102497.34;20974898;28;20049;-75
2023/02/05 23:12:42;;;;;;;25.20;14.93;;;;;;;3.57;100.00;102515.66;20980393;28;20119;-74
2023/02/05 23:22:43;;;;;;;28.30;16.05;;;;;;;3.57;100.00;102516.53;20980624;28;20049;-74
2023/02/05 23:32:44;;;;;;;34.10;16.77;;;;;;;3.60;100.00;102520.97;20978046;28;20056;-74
2023/02/05 23:42:46;;;;;;;26.38;14.95;;;;;;;3.60;100.00;102523.56;20978334;28;20056;-74
2023/02/05 23:52:47;;;;;;;23.48;14.05;;;;;;;3.44;100.00;102536.59;20978078;28;20055;-74
